Terminal Aerodrome Forecast
Issued by NWS

Home | Current Version | Previous Version | Text Only | Print | Product List | Glossary On
Versions: 1 2 3 4 5 6 7 8 9 10 11 12
107
FTUS44 KEPZ 071132
TAFTCS
TAF
KTCS 071132Z 0712/0812 32005KT P6SM SCT250
     FM071600 02005KT P6SM SCT250
     FM080300 33005KT P6SM SCT250
     FM080600 01009KT P6SM FEW250=

USA.gov is the U.S. government's official web portal to all federal, state and local government web resources and services.